Time;durP1;ratioP1;P1;durP2;ratioP2;P2;SDS_P1;SDS_P2;PMS_P1;PMS_P2;Temp;Humidity;BMP_temperature;BMP_pressure;BME280_temperature;BME280_humidity;BME280_pressure;Samples;Min_cycle;Max_cycle;Signal;HPM_P1;HPM_P2
2023/07/15 00:01:04;;;;;;;9.15;3.20;;;;;;;;;;5144765;27;20046;-70
2023/07/15 00:03:32;;;;;;;3.95;3.00;;;;;;;;;;5146108;27;20091;-70
2023/07/15 00:06:01;;;;;;;7.88;2.97;;;;;;;;;;5151783;27;20497;-69
2023/07/15 00:08:28;;;;;;;6.65;2.80;;;;;;;;;;5143995;27;20050;-70
2023/07/15 00:10:56;;;;;;;8.38;3.28;;;;;;;;;;5148748;27;20089;-70
2023/07/15 00:13:23;;;;;;;6.30;2.58;;;;;;;;;;5149550;27;20051;-70
2023/07/15 00:15:53;;;;;;;4.28;2.88;;;;;;;;;;5151923;27;20050;-69
2023/07/15 00:18:20;;;;;;;4.32;2.90;;;;;;;;;;5129334;27;20054;-70
2023/07/15 00:20:48;;;;;;;5.22;2.30;;;;;;;;;;5147581;27;20491;-70
2023/07/15 00:23:19;;;;;;;3.45;2.42;;;;;;;;;;5140381;27;20065;-69
2023/07/15 00:25:46;;;;;;;4.70;2.95;;;;;;;;;;5148574;27;20078;-70
2023/07/15 00:28:14;;;;;;;3.35;2.47;;;;;;;;;;5146150;27;20049;-70
2023/07/15 00:30:41;;;;;;;4.82;2.67;;;;;;;;;;5144813;27;20210;-69
2023/07/15 00:33:13;;;;;;;5.63;3.17;;;;;;;;;;5145513;27;20058;-70
2023/07/15 00:35:40;;;;;;;4.70;2.20;;;;;;;;;;5145414;27;20186;-70
2023/07/15 00:38:07;;;;;;;6.18;2.80;;;;;;;;;;5149997;27;20047;-70
2023/07/15 00:40:38;;;;;;;6.18;2.28;;;;;;;;;;5144714;27;20485;-70
2023/07/15 00:43:24;;;;;;;4.03;2.08;;;;;;;;;;5141900;27;20469;-70
2023/07/15 00:46:12;;;;;;;4.30;1.88;;;;;;;;;;5141370;27;20043;-69
2023/07/15 00:48:41;;;;;;;3.65;1.98;;;;;;;;;;5141340;27;20054;-69
2023/07/15 00:51:09;;;;;;;2.92;2.00;;;;;;;;;;5147922;27;20043;-70
2023/07/15 00:53:36;;;;;;;6.03;2.40;;;;;;;;;;5147741;27;20514;-70
2023/07/15 00:56:03;;;;;;;5.43;2.00;;;;;;;;;;5139376;27;20043;-70
2023/07/15 00:58:31;;;;;;;4.13;1.90;;;;;;;;;;5142438;27;20051;-70
2023/07/15 01:00:59;;;;;;;5.47;2.53;;;;;;;;;;5143144;27;20047;-70
2023/07/15 01:03:26;;;;;;;2.83;1.92;;;;;;;;;;5143564;27;20054;-70
2023/07/15 01:05:54;;;;;;;3.88;2.25;;;;;;;;;;5130532;27;20411;-70
2023/07/15 01:08:21;;;;;;;4.07;2.20;;;;;;;;;;5136626;27;20062;-70
2023/07/15 01:10:49;;;;;;;4.82;2.30;;;;;;;;;;5133593;27;20063;-70
2023/07/15 01:13:16;;;;;;;4.43;2.10;;;;;;;;;;5138410;27;20477;-70
2023/07/15 01:15:43;;;;;;;3.65;2.30;;;;;;;;;;5141732;27;20408;-70
2023/07/15 01:18:12;;;;;;;3.97;2.22;;;;;;;;;;5129862;27;20054;-70
2023/07/15 01:20:39;;;;;;;5.45;2.22;;;;;;;;;;5125096;27;20054;-70
2023/07/15 01:23:08;;;;;;;4.38;1.90;;;;;;;;;;5147861;27;20045;-70
2023/07/15 01:25:35;;;;;;;4.03;2.33;;;;;;;;;;5146391;27;20069;-70
2023/07/15 01:28:02;;;;;;;4.65;2.20;;;;;;;;;;5149090;27;20078;-70
2023/07/15 01:30:30;;;;;;;4.90;1.92;;;;;;;;;;5115860;27;20538;-70
2023/07/15 01:32:57;;;;;;;4.88;2.10;;;;;;;;;;5141247;27;20498;-70
2023/07/15 01:35:24;;;;;;;3.03;1.63;;;;;;;;;;5149889;27;20042;-70
2023/07/15 01:37:52;;;;;;;7.57;1.83;;;;;;;;;;5135940;27;20047;-70
2023/07/15 01:40:20;;;;;;;6.13;2.28;;;;;;;;;;5139071;27;20497;-71
2023/07/15 01:42:48;;;;;;;3.80;1.73;;;;;;;;;;5147611;27;20038;-70
2023/07/15 01:45:15;;;;;;;3.67;1.90;;;;;;;;;;5143257;27;20339;-70
2023/07/15 01:47:43;;;;;;;3.90;1.90;;;;;;;;;;5145485;27;20443;-71
2023/07/15 01:50:10;;;;;;;3.95;2.10;;;;;;;;;;5139635;27;20493;-70
2023/07/15 01:52:37;;;;;;;3.20;1.77;;;;;;;;;;5144785;27;20399;-71
2023/07/15 01:55:05;;;;;;;3.42;1.42;;;;;;;;;;5121243;27;20051;-70
2023/07/15 01:57:34;;;;;;;3.03;1.73;;;;;;;;;;5133198;27;20058;-70
2023/07/15 02:00:01;;;;;;;5.18;1.95;;;;;;;;;;5138084;27;20071;-70
2023/07/15 02:02:29;;;;;;;3.38;1.88;;;;;;;;;;5123575;27;20047;-70
2023/07/15 02:04:56;;;;;;;6.63;1.92;;;;;;;;;;5144509;27;20050;-70
2023/07/15 02:07:23;;;;;;;3.60;1.98;;;;;;;;;;5147909;27;20130;-70
2023/07/15 02:09:51;;;;;;;3.03;1.65;;;;;;;;;;5138629;27;20496;-70
2023/07/15 02:12:18;;;;;;;3.80;1.60;;;;;;;;;;5143209;27;20402;-70
2023/07/15 02:14:46;;;;;;;2.60;1.70;;;;;;;;;;5143504;27;20058;-70
2023/07/15 02:17:14;;;;;;;3.55;1.92;;;;;;;;;;5136431;27;20047;-70
2023/07/15 02:19:41;;;;;;;3.53;1.60;;;;;;;;;;5128488;27;20062;-70
2023/07/15 02:22:09;;;;;;;3.70;1.77;;;;;;;;;;5122503;27;20069;-70
2023/07/15 02:24:36;;;;;;;4.97;1.45;;;;;;;;;;5145925;27;20528;-70
2023/07/15 02:27:04;;;;;;;5.63;1.70;;;;;;;;;;5122422;27;20093;-70
2023/07/15 02:29:31;;;;;;;2.88;1.80;;;;;;;;;;5126613;27;20082;-70
2023/07/15 02:32:00;;;;;;;4.03;1.70;;;;;;;;;;5144723;27;20058;-70
2023/07/15 02:34:27;;;;;;;4.65;1.55;;;;;;;;;;5147237;27;20039;-70
2023/07/15 02:36:54;;;;;;;6.40;1.73;;;;;;;;;;5141543;27;20043;-69
2023/07/15 02:39:21;;;;;;;2.50;1.52;;;;;;;;;;5125702;27;20405;-70
2023/07/15 02:41:50;;;;;;;9.90;1.60;;;;;;;;;;5136120;27;20047;-70
2023/07/15 02:44:17;;;;;;;4.43;1.40;;;;;;;;;;5140228;27;20054;-70
2023/07/15 02:46:44;;;;;;;2.60;1.52;;;;;;;;;;5119030;27;20512;-70
2023/07/15 02:49:13;;;;;;;4.22;1.58;;;;;;;;;;5139416;27;20047;-70
2023/07/15 02:51:40;;;;;;;5.80;1.50;;;;;;;;;;5145371;27;20477;-70
2023/07/15 02:54:07;;;;;;;3.50;1.80;;;;;;;;;;5148095;27;20049;-69
2023/07/15 02:56:34;;;;;;;3.10;1.70;;;;;;;;;;5137564;27;20077;-70
2023/07/15 02:59:02;;;;;;;2.75;1.48;;;;;;;;;;5146163;27;20049;-69
2023/07/15 03:01:29;;;;;;;3.35;1.85;;;;;;;;;;5142544;27;20082;-70
2023/07/15 03:03:56;;;;;;;5.32;1.80;;;;;;;;;;5146889;27;20162;-69
2023/07/15 03:06:25;;;;;;;5.35;1.55;;;;;;;;;;5143555;27;20070;-70
2023/07/15 03:08:52;;;;;;;4.45;1.80;;;;;;;;;;5143030;27;20046;-69
2023/07/15 03:11:19;;;;;;;5.75;1.70;;;;;;;;;;5126291;27;20126;-70
2023/07/15 03:13:47;;;;;;;2.95;1.65;;;;;;;;;;5143095;27;20119;-69
2023/07/15 03:16:14;;;;;;;3.50;1.85;;;;;;;;;;5144480;27;20678;-69
2023/07/15 03:18:42;;;;;;;3.35;1.75;;;;;;;;;;5142778;27;20123;-69
2023/07/15 03:21:09;;;;;;;3.45;1.85;;;;;;;;;;5147680;27;20482;-70
2023/07/15 03:23:37;;;;;;;3.58;1.70;;;;;;;;;;5138160;27;20058;-70
2023/07/15 03:26:05;;;;;;;3.70;2.17;;;;;;;;;;5140603;27;20043;-70
2023/07/15 03:28:32;;;;;;;3.38;1.80;;;;;;;;;;5135788;27;20093;-70
2023/07/15 03:30:59;;;;;;;5.15;2.00;;;;;;;;;;5121523;27;20054;-69
2023/07/15 03:33:26;;;;;;;4.88;1.88;;;;;;;;;;5134238;27;20509;-69
2023/07/15 03:35:54;;;;;;;3.65;1.92;;;;;;;;;;5139249;27;20047;-69
2023/07/15 03:38:21;;;;;;;4.47;1.73;;;;;;;;;;5150646;27;20094;-69
2023/07/15 03:40:51;;;;;;;7.25;1.98;;;;;;;;;;5145234;27;20135;-69
2023/07/15 03:43:18;;;;;;;3.25;1.73;;;;;;;;;;5143860;27;20077;-69
2023/07/15 03:45:46;;;;;;;6.47;2.25;;;;;;;;;;5145605;27;20401;-69
2023/07/15 03:48:13;;;;;;;2.95;1.70;;;;;;;;;;5123902;27;20051;-69
2023/07/15 03:50:40;;;;;;;6.93;1.75;;;;;;;;;;5145554;27;20485;-70
2023/07/15 03:53:07;;;;;;;3.10;1.92;;;;;;;;;;5144438;27;20055;-69
2023/07/15 03:55:37;;;;;;;5.85;1.80;;;;;;;;;;5147181;27;20057;-69
2023/07/15 03:58:06;;;;;;;4.18;1.90;;;;;;;;;;5149371;27;20496;-69
2023/07/15 04:00:33;;;;;;;3.28;2.05;;;;;;;;;;5136388;27;20773;-69
2023/07/15 04:03:01;;;;;;;4.07;2.10;;;;;;;;;;5145101;27;20054;-70
2023/07/15 04:05:29;;;;;;;5.13;2.28;;;;;;;;;;5147625;27;20051;-70
2023/07/15 04:07:56;;;;;;;4.53;2.20;;;;;;;;;;5146553;27;20054;-70
2023/07/15 04:10:23;;;;;;;5.13;2.47;;;;;;;;;;5145406;27;20545;-69
2023/07/15 04:12:50;;;;;;;7.53;2.17;;;;;;;;;;5150090;27;20035;-70
2023/07/15 04:15:19;;;;;;;5.45;2.10;;;;;;;;;;5148907;27;20046;-69
2023/07/15 04:17:46;;;;;;;4.90;2.22;;;;;;;;;;5147671;27;20046;-70
2023/07/15 04:20:15;;;;;;;3.88;2.20;;;;;;;;;;5143673;27;20047;-69
2023/07/15 04:22:42;;;;;;;3.00;2.08;;;;;;;;;;5147135;27;20125;-69
2023/07/15 04:25:11;;;;;;;5.80;2.28;;;;;;;;;;5144088;27;20055;-69
2023/07/15 04:27:39;;;;;;;5.88;2.17;;;;;;;;;;5146319;27;20469;-69
2023/07/15 04:30:07;;;;;;;3.60;2.25;;;;;;;;;;5147979;27;20039;-69
2023/07/15 04:32:36;;;;;;;4.28;2.17;;;;;;;;;;5149501;27;20061;-69
2023/07/15 04:35:03;;;;;;;5.90;2.30;;;;;;;;;;5147792;27;20047;-69
2023/07/15 04:37:31;;;;;;;4.25;2.40;;;;;;;;;;5125958;27;20089;-70
2023/07/15 04:39:58;;;;;;;3.92;2.17;;;;;;;;;;5137249;27;20039;-70
2023/07/15 04:42:25;;;;;;;6.45;2.53;;;;;;;;;;5146240;27;20480;-70
2023/07/15 04:44:53;;;;;;;5.20;2.20;;;;;;;;;;5137022;27;20091;-70
2023/07/15 04:47:20;;;;;;;3.97;2.22;;;;;;;;;;5142917;27;20047;-69
2023/07/15 04:49:48;;;;;;;3.80;2.03;;;;;;;;;;5131137;27;20058;-70
2023/07/15 04:52:16;;;;;;;6.68;2.30;;;;;;;;;;5145765;27;20051;-70
2023/07/15 04:54:43;;;;;;;3.92;2.20;;;;;;;;;;5149378;27;20401;-70
2023/07/15 04:57:12;;;;;;;4.03;2.20;;;;;;;;;;5137704;27;20432;-70
2023/07/15 04:59:39;;;;;;;4.93;2.10;;;;;;;;;;5139788;27;20125;-70
2023/07/15 05:02:06;;;;;;;4.63;2.10;;;;;;;;;;5142991;27;20043;-70
2023/07/15 05:04:34;;;;;;;3.67;2.10;;;;;;;;;;5147171;27;20043;-70
2023/07/15 05:07:02;;;;;;;3.17;1.80;;;;;;;;;;5142205;27;20541;-69
2023/07/15 05:09:31;;;;;;;4.20;2.00;;;;;;;;;;5143652;27;20059;-71
2023/07/15 05:11:58;;;;;;;3.28;1.88;;;;;;;;;;5147744;27;20073;-70
2023/07/15 05:14:25;;;;;;;3.42;1.90;;;;;;;;;;5141464;27;20477;-70
2023/07/15 05:16:53;;;;;;;4.70;2.03;;;;;;;;;;5146065;27;20081;-69
2023/07/15 05:19:21;;;;;;;5.43;2.00;;;;;;;;;;5146542;27;20666;-70
2023/07/15 05:21:48;;;;;;;4.55;1.90;;;;;;;;;;5149513;27;20045;-69
2023/07/15 05:24:18;;;;;;;7.10;2.42;;;;;;;;;;5144981;27;20497;-70
2023/07/15 05:26:45;;;;;;;3.33;2.05;;;;;;;;;;5144999;27;20035;-69
2023/07/15 05:29:13;;;;;;;4.57;2.20;;;;;;;;;;5145249;27;20043;-72
2023/07/15 05:31:40;;;;;;;5.60;2.25;;;;;;;;;;5145223;27;20051;-71
2023/07/15 05:34:07;;;;;;;4.60;2.25;;;;;;;;;;5142452;27;20050;-71
2023/07/15 05:36:34;;;;;;;4.18;1.90;;;;;;;;;;5147090;27;20058;-71
2023/07/15 05:39:02;;;;;;;3.70;2.22;;;;;;;;;;5143216;27;20047;-70
2023/07/15 05:41:30;;;;;;;4.25;2.50;;;;;;;;;;5136657;27;20051;-70
2023/07/15 05:43:58;;;;;;;3.97;2.10;;;;;;;;;;5140703;27;20450;-70
2023/07/15 05:46:25;;;;;;;4.38;2.20;;;;;;;;;;5115976;27;20051;-69
2023/07/15 05:48:52;;;;;;;3.08;1.92;;;;;;;;;;5140467;27;20052;-70
2023/07/15 05:51:19;;;;;;;2.92;1.98;;;;;;;;;;5141362;27;20035;-71
2023/07/15 05:53:47;;;;;;;4.57;2.10;;;;;;;;;;5148286;27;20571;-69
2023/07/15 05:56:14;;;;;;;4.20;1.67;;;;;;;;;;5146398;27;20057;-70
2023/07/15 05:58:42;;;;;;;2.97;2.10;;;;;;;;;;5145707;27;20394;-70
2023/07/15 06:01:10;;;;;;;3.28;1.80;;;;;;;;;;5126632;27;20382;-69
2023/07/15 06:03:37;;;;;;;5.03;1.70;;;;;;;;;;5139107;27;20058;-69
2023/07/15 06:06:04;;;;;;;5.32;1.90;;;;;;;;;;5143364;27;20127;-70
2023/07/15 06:08:32;;;;;;;4.30;1.70;;;;;;;;;;5148058;27;20050;-69
2023/07/15 06:10:59;;;;;;;4.57;1.90;;;;;;;;;;5145579;27;20073;-70
2023/07/15 06:13:27;;;;;;;4.82;1.77;;;;;;;;;;5142480;27;20055;-70
2023/07/15 06:15:55;;;;;;;4.30;1.80;;;;;;;;;;5148739;27;20047;-70
2023/07/15 06:18:23;;;;;;;3.05;1.67;;;;;;;;;;5143337;27;20516;-70
2023/07/15 06:20:51;;;;;;;3.70;1.80;;;;;;;;;;5139626;27;20047;-69
2023/07/15 06:23:18;;;;;;;3.25;1.92;;;;;;;;;;5134487;27;20058;-70
2023/07/15 06:25:45;;;;;;;2.42;1.50;;;;;;;;;;5147332;27;20042;-69
2023/07/15 06:28:13;;;;;;;2.20;1.38;;;;;;;;;;5141590;27;20046;-70
2023/07/15 06:30:40;;;;;;;5.05;1.70;;;;;;;;;;5145790;27;20055;-69
2023/07/15 06:33:09;;;;;;;3.78;1.42;;;;;;;;;;5142027;27;20055;-70
2023/07/15 06:35:36;;;;;;;4.43;1.60;;;;;;;;;;5143110;27;20046;-69
2023/07/15 06:38:03;;;;;;;2.28;1.42;;;;;;;;;;5132706;27;20143;-69
2023/07/15 06:40:30;;;;;;;4.63;1.52;;;;;;;;;;5124010;27;20074;-70
2023/07/15 06:42:57;;;;;;;3.17;1.40;;;;;;;;;;5143747;27;20248;-69
2023/07/15 06:45:33;;;;;;;4.00;1.05;;;;;;;;;;5148077;27;20114;-67
2023/07/15 06:48:00;;;;;;;1.83;1.10;;;;;;;;;;5142657;27;21762;-67
2023/07/15 06:50:29;;;;;;;2.40;1.13;;;;;;;;;;5140298;27;20055;-69
2023/07/15 06:52:56;;;;;;;1.63;0.90;;;;;;;;;;5139030;27;20095;-67
2023/07/15 06:55:24;;;;;;;6.07;1.52;;;;;;;;;;5135155;27;20055;-67
2023/07/15 06:57:51;;;;;;;4.00;1.25;;;;;;;;;;5146378;27;20420;-67
2023/07/15 07:00:18;;;;;;;4.45;1.17;;;;;;;;;;5135130;27;20414;-66
2023/07/15 07:02:46;;;;;;;2.50;1.00;;;;;;;;;;5141294;27;20046;-66
2023/07/15 07:05:13;;;;;;;3.20;1.15;;;;;;;;;;5145418;27;20070;-68
2023/07/15 07:07:41;;;;;;;2.33;1.05;;;;;;;;;;5138357;27;20827;-66
2023/07/15 07:10:09;;;;;;;2.83;1.20;;;;;;;;;;5141007;27;20043;-67
2023/07/15 07:12:37;;;;;;;2.20;1.00;;;;;;;;;;5147826;27;20074;-67
2023/07/15 07:15:04;;;;;;;2.75;1.02;;;;;;;;;;5145265;27;20507;-66
2023/07/15 07:17:31;;;;;;;3.25;1.00;;;;;;;;;;5147648;27;20520;-67
2023/07/15 07:19:59;;;;;;;2.75;1.00;;;;;;;;;;5141756;27;20050;-66
2023/07/15 07:22:26;;;;;;;1.70;0.93;;;;;;;;;;5144369;27;21457;-66
2023/07/15 07:24:55;;;;;;;3.70;1.10;;;;;;;;;;5148856;27;20046;-66
2023/07/15 07:27:22;;;;;;;2.50;1.10;;;;;;;;;;5124517;27;20043;-66
2023/07/15 07:29:49;;;;;;;2.25;1.02;;;;;;;;;;5142541;27;20035;-67
2023/07/15 07:32:17;;;;;;;2.35;1.00;;;;;;;;;;5147758;27;20093;-66
2023/07/15 07:34:44;;;;;;;2.45;1.10;;;;;;;;;;5151314;27;20050;-67
2023/07/15 07:37:12;;;;;;;1.63;0.73;;;;;;;;;;5147924;27;20049;-66
2023/07/15 07:39:39;;;;;;;1.52;0.95;;;;;;;;;;5148615;27;20576;-67
2023/07/15 07:42:08;;;;;;;1.23;0.80;;;;;;;;;;5150611;27;20043;-67
2023/07/15 07:44:35;;;;;;;2.40;0.90;;;;;;;;;;5148681;27;20063;-67
2023/07/15 07:47:03;;;;;;;1.63;0.60;;;;;;;;;;5149118;27;20050;-67
2023/07/15 07:49:30;;;;;;;2.40;0.70;;;;;;;;;;5143014;27;20108;-68
2023/07/15 07:51:57;;;;;;;2.95;0.75;;;;;;;;;;5144230;27;20473;-67
2023/07/15 07:54:24;;;;;;;3.53;0.80;;;;;;;;;;5142098;27;20039;-66
2023/07/15 07:56:52;;;;;;;2.92;0.80;;;;;;;;;;5145709;27;20054;-66
2023/07/15 07:59:20;;;;;;;5.97;0.90;;;;;;;;;;5142853;27;20513;-66
2023/07/15 08:01:47;;;;;;;6.38;0.98;;;;;;;;;;5143817;27;20050;-66
2023/07/15 08:04:15;;;;;;;4.13;1.33;;;;;;;;;;5145637;27;20512;-66
2023/07/15 08:06:42;;;;;;;3.25;0.70;;;;;;;;;;5146476;27;20077;-66
2023/07/15 08:09:10;;;;;;;2.00;0.80;;;;;;;;;;5143904;27;20042;-66
2023/07/15 08:11:37;;;;;;;3.28;0.80;;;;;;;;;;5145074;27;20359;-67
2023/07/15 08:14:04;;;;;;;4.40;0.90;;;;;;;;;;5140051;27;20043;-66
2023/07/15 08:16:33;;;;;;;2.88;0.88;;;;;;;;;;5140773;27;20047;-66
2023/07/15 08:19:01;;;;;;;5.25;1.42;;;;;;;;;;5143095;27;20039;-66
2023/07/15 08:21:28;;;;;;;4.18;1.08;;;;;;;;;;5149110;27;20050;-67
2023/07/15 08:23:56;;;;;;;6.47;1.08;;;;;;;;;;5143865;27;20043;-67
2023/07/15 08:26:23;;;;;;;3.80;0.90;;;;;;;;;;5143769;27;20078;-67
2023/07/15 08:28:51;;;;;;;3.13;0.90;;;;;;;;;;5145614;27;20051;-67
2023/07/15 08:31:18;;;;;;;5.53;0.93;;;;;;;;;;5144141;27;20066;-67
2023/07/15 08:33:47;;;;;;;4.50;1.10;;;;;;;;;;5148080;27;20053;-67
2023/07/15 08:36:14;;;;;;;4.18;1.20;;;;;;;;;;5146108;27;20150;-67
2023/07/15 08:38:41;;;;;;;4.43;0.90;;;;;;;;;;5149469;27;20497;-67
2023/07/15 08:41:09;;;;;;;1.92;0.90;;;;;;;;;;5137402;27;20469;-67
2023/07/15 08:43:36;;;;;;;2.92;1.08;;;;;;;;;;5148935;27;20401;-68
2023/07/15 08:46:08;;;;;;;1.98;1.10;;;;;;;;;;5142832;27;20087;-67
2023/07/15 08:48:36;;;;;;;3.65;1.10;;;;;;;;;;5147633;27;20569;-67
2023/07/15 08:51:06;;;;;;;3.60;0.93;;;;;;;;;;5147004;27;20058;-67
2023/07/15 08:53:33;;;;;;;2.88;0.85;;;;;;;;;;5127789;27;20141;-66
2023/07/15 08:56:00;;;;;;;3.08;1.23;;;;;;;;;;5144894;27;20401;-67
2023/07/15 08:58:28;;;;;;;3.75;1.30;;;;;;;;;;5146126;27;20043;-67
2023/07/15 09:00:56;;;;;;;4.50;1.33;;;;;;;;;;5126070;27;20062;-66
2023/07/15 09:03:23;;;;;;;3.50;0.85;;;;;;;;;;5148527;27;20046;-66
2023/07/15 09:05:50;;;;;;;2.55;0.88;;;;;;;;;;5137382;27;20107;-67
2023/07/15 09:08:19;;;;;;;4.00;1.02;;;;;;;;;;5142426;27;20046;-67
2023/07/15 09:10:53;;;;;;;2.53;1.00;;;;;;;;;;5142772;27;20047;-66
2023/07/15 09:13:24;;;;;;;5.00;1.08;;;;;;;;;;5138489;27;20035;-67
2023/07/15 09:15:52;;;;;;;1.60;0.77;;;;;;;;;;5140777;27;20524;-67
2023/07/15 09:18:19;;;;;;;3.75;1.00;;;;;;;;;;5143654;27;20725;-67
2023/07/15 09:20:47;;;;;;;3.83;1.10;;;;;;;;;;5142569;27;20125;-67
2023/07/15 09:23:14;;;;;;;4.88;1.10;;;;;;;;;;5146274;27;20062;-67
2023/07/15 09:25:51;;;;;;;3.03;1.00;;;;;;;;;;5147992;27;20059;-68
2023/07/15 09:28:22;;;;;;;2.28;0.93;;;;;;;;;;5141851;27;20074;-68
2023/07/15 09:30:50;;;;;;;3.38;1.00;;;;;;;;;;5142547;27;20409;-69
2023/07/15 09:33:30;;;;;;;4.05;1.00;;;;;;;;;;5145086;27;20043;-68
2023/07/15 09:35:57;;;;;;;3.33;1.17;;;;;;;;;;5136480;27;20446;-68
2023/07/15 09:38:25;;;;;;;2.72;1.17;;;;;;;;;;5144349;27;20508;-68
2023/07/15 09:40:53;;;;;;;2.45;0.95;;;;;;;;;;5144886;27;20148;-68
2023/07/15 09:43:21;;;;;;;4.10;1.00;;;;;;;;;;5142068;27;20054;-68
2023/07/15 09:45:48;;;;;;;1.63;1.00;;;;;;;;;;5148472;27;20061;-69
2023/07/15 09:48:16;;;;;;;2.53;1.05;;;;;;;;;;5144573;27;20043;-69
2023/07/15 09:50:44;;;;;;;3.05;1.00;;;;;;;;;;5141358;27;20099;-68
2023/07/15 09:53:13;;;;;;;2.63;1.00;;;;;;;;;;5140376;27;20128;-68
2023/07/15 09:55:41;;;;;;;2.97;0.93;;;;;;;;;;5145332;27;20054;-69
2023/07/15 09:58:14;;;;;;;3.50;1.27;;;;;;;;;;5143688;27;20088;-68
2023/07/15 10:00:44;;;;;;;1.95;1.00;;;;;;;;;;5138491;27;20057;-71
2023/07/15 10:03:17;;;;;;;7.03;1.42;;;;;;;;;;5124501;27;20239;-68
2023/07/15 10:05:45;;;;;;;2.53;1.00;;;;;;;;;;5142803;27;20050;-68
2023/07/15 10:08:12;;;;;;;6.22;1.30;;;;;;;;;;5139294;27;20043;-70
2023/07/15 10:10:40;;;;;;;2.60;1.20;;;;;;;;;;5147096;27;20489;-70
2023/07/15 10:13:07;;;;;;;5.47;1.33;;;;;;;;;;5146385;27;20046;-70
2023/07/15 10:15:36;;;;;;;4.85;1.10;;;;;;;;;;5144935;27;20047;-70
2023/07/15 10:18:12;;;;;;;4.00;1.30;;;;;;;;;;5131858;27;20066;-68
2023/07/15 10:20:42;;;;;;;3.33;1.35;;;;;;;;;;5141567;27;20054;-69
2023/07/15 10:23:10;;;;;;;3.33;1.00;;;;;;;;;;5145809;27;20139;-67
2023/07/15 10:25:38;;;;;;;4.63;1.13;;;;;;;;;;5143948;27;20051;-70
2023/07/15 10:28:12;;;;;;;2.80;1.17;;;;;;;;;;5145466;27;20065;-69
2023/07/15 10:30:41;;;;;;;4.70;1.40;;;;;;;;;;5143403;27;20115;-68
2023/07/15 10:33:24;;;;;;;2.65;0.90;;;;;;;;;;5146241;27;20043;-69
2023/07/15 10:35:53;;;;;;;1.33;0.90;;;;;;;;;;5143227;27;20074;-68
2023/07/15 10:38:24;;;;;;;2.42;1.10;;;;;;;;;;5141291;27;20493;-68
2023/07/15 10:40:52;;;;;;;3.25;1.13;;;;;;;;;;5148694;27;20058;-69
2023/07/15 10:43:21;;;;;;;2.90;1.05;;;;;;;;;;5142213;27;20047;-68
2023/07/15 10:45:56;;;;;;;2.50;1.10;;;;;;;;;;5148517;27;20043;-70
2023/07/15 10:48:24;;;;;;;5.15;0.95;;;;;;;;;;5139098;27;20393;-68
2023/07/15 10:50:54;;;;;;;3.00;1.17;;;;;;;;;;5145978;27;20401;-68
2023/07/15 10:53:22;;;;;;;1.80;1.00;;;;;;;;;;5144492;27;20421;-68
2023/07/15 10:55:56;;;;;;;2.13;1.20;;;;;;;;;;5150457;27;20043;-69
2023/07/15 10:58:24;;;;;;;2.45;1.23;;;;;;;;;;5149035;27;20039;-68
2023/07/15 11:00:51;;;;;;;2.08;1.08;;;;;;;;;;5146497;27;20051;-70
2023/07/15 11:03:20;;;;;;;2.63;1.10;;;;;;;;;;5147149;27;20058;-69
2023/07/15 11:05:48;;;;;;;2.92;1.23;;;;;;;;;;5141603;27;20035;-72
2023/07/15 11:08:15;;;;;;;1.52;1.00;;;;;;;;;;5149670;27;20053;-69
2023/07/15 11:10:43;;;;;;;3.53;1.05;;;;;;;;;;5148739;27;20046;-69
2023/07/15 11:13:14;;;;;;;2.80;1.40;;;;;;;;;;5141316;27;20090;-69
2023/07/15 11:15:41;;;;;;;6.07;1.33;;;;;;;;;;5140278;27;20783;-69
2023/07/15 11:18:15;;;;;;;9.57;1.70;;;;;;;;;;5126902;27;20042;-69
2023/07/15 11:20:44;;;;;;;3.58;1.02;;;;;;;;;;5124748;27;20078;-70
2023/07/15 11:23:11;;;;;;;2.10;1.20;;;;;;;;;;5145885;27;20383;-71
2023/07/15 11:25:39;;;;;;;1.40;1.08;;;;;;;;;;5150366;27;20053;-70
2023/07/15 11:28:06;;;;;;;0.93;0.70;;;;;;;;;;5142806;27;20054;-71
2023/07/15 11:30:37;;;;;;;1.80;1.02;;;;;;;;;;5120223;27;20050;-69
2023/07/15 11:33:05;;;;;;;2.47;1.00;;;;;;;;;;5147365;27;20043;-69
2023/07/15 11:35:33;;;;;;;1.63;0.93;;;;;;;;;;5146036;27;20045;-68
2023/07/15 11:38:07;;;;;;;1.60;0.93;;;;;;;;;;5125524;27;20058;-69
2023/07/15 11:40:35;;;;;;;1.63;0.93;;;;;;;;;;5127767;27;20064;-69
2023/07/15 11:43:03;;;;;;;1.88;0.88;;;;;;;;;;5132157;27;20485;-68
2023/07/15 11:45:30;;;;;;;2.00;1.05;;;;;;;;;;5147409;27;20046;-72
2023/07/15 11:47:57;;;;;;;2.53;0.90;;;;;;;;;;5139380;27;20508;-69
2023/07/15 11:50:28;;;;;;;2.10;0.90;;;;;;;;;;5147507;27;20537;-69
2023/07/15 11:52:56;;;;;;;1.85;0.98;;;;;;;;;;5146834;27;20050;-71
2023/07/15 11:55:27;;;;;;;1.63;1.10;;;;;;;;;;5139876;27;20049;-68
2023/07/15 11:57:55;;;;;;;1.30;1.00;;;;;;;;;;5147248;27;20046;-70
2023/07/15 12:00:26;;;;;;;1.65;1.15;;;;;;;;;;5142443;27;20128;-69
2023/07/15 12:02:53;;;;;;;1.75;1.10;;;;;;;;;;5143852;27;20179;-69
2023/07/15 12:05:20;;;;;;;1.80;1.08;;;;;;;;;;5145852;27;20450;-67
2023/07/15 12:07:49;;;;;;;2.90;1.00;;;;;;;;;;5149956;27;20047;-70
2023/07/15 12:10:16;;;;;;;1.55;0.80;;;;;;;;;;5148555;27;20055;-69
2023/07/15 12:12:45;;;;;;;1.60;1.15;;;;;;;;;;5146344;27;20046;-69
2023/07/15 12:15:13;;;;;;;2.05;0.98;;;;;;;;;;5126938;27;20127;-68
2023/07/15 12:17:40;;;;;;;2.97;1.08;;;;;;;;;;5141094;27;20043;-69
2023/07/15 12:20:08;;;;;;;4.57;1.30;;;;;;;;;;5144380;27;20038;-68
2023/07/15 12:22:35;;;;;;;2.40;1.15;;;;;;;;;;5145869;27;20055;-67
2023/07/15 12:25:02;;;;;;;1.73;1.02;;;;;;;;;;5139242;27;20039;-68
2023/07/15 12:27:30;;;;;;;3.30;1.20;;;;;;;;;;5143691;27;20086;-68
2023/07/15 12:29:59;;;;;;;3.45;1.30;;;;;;;;;;5142583;27;20046;-67
2023/07/15 12:32:26;;;;;;;2.33;1.20;;;;;;;;;;5142531;27;20050;-68
2023/07/15 12:34:53;;;;;;;2.53;1.20;;;;;;;;;;5146205;27;20043;-68
2023/07/15 12:37:21;;;;;;;2.10;1.20;;;;;;;;;;5142604;27;20035;-69
2023/07/15 12:39:48;;;;;;;3.20;1.40;;;;;;;;;;5121098;27;20059;-67
2023/07/15 12:42:15;;;;;;;2.35;1.10;;;;;;;;;;5127731;27;20054;-68
2023/07/15 12:44:42;;;;;;;3.08;1.17;;;;;;;;;;5144242;27;20439;-68
2023/07/15 12:47:11;;;;;;;2.78;1.08;;;;;;;;;;5138564;27;20436;-68
2023/07/15 12:49:38;;;;;;;1.50;0.93;;;;;;;;;;5144695;27;20082;-68
2023/07/15 12:52:06;;;;;;;2.90;1.08;;;;;;;;;;5137675;27;20054;-68
2023/07/15 12:54:33;;;;;;;2.10;0.90;;;;;;;;;;5139294;27;20062;-68
2023/07/15 12:57:00;;;;;;;3.35;1.10;;;;;;;;;;5140888;27;20462;-68
2023/07/15 12:59:27;;;;;;;3.30;1.42;;;;;;;;;;5139726;27;20483;-69
2023/07/15 13:01:55;;;;;;;2.80;1.30;;;;;;;;;;5138641;27;20050;-68
2023/07/15 13:04:23;;;;;;;2.13;1.20;;;;;;;;;;5142981;27;20038;-70
2023/07/15 13:06:50;;;;;;;1.30;0.90;;;;;;;;;;5141445;27;20408;-70
2023/07/15 13:09:18;;;;;;;1.90;1.00;;;;;;;;;;5128690;27;20065;-69
2023/07/15 13:11:45;;;;;;;2.75;1.40;;;;;;;;;;5134059;27;20059;-70
2023/07/15 13:14:12;;;;;;;1.10;1.00;;;;;;;;;;5141048;27;20062;-69
2023/07/15 13:16:41;;;;;;;2.65;1.17;;;;;;;;;;5140974;27;20042;-74
2023/07/15 13:19:09;;;;;;;2.05;1.20;;;;;;;;;;5138299;27;20441;-70
2023/07/15 13:21:37;;;;;;;2.35;1.20;;;;;;;;;;5126020;27;20458;-70
2023/07/15 13:24:05;;;;;;;2.58;1.20;;;;;;;;;;5139181;27;20043;-68
2023/07/15 13:26:32;;;;;;;1.67;1.20;;;;;;;;;;5141114;27;20073;-70
2023/07/15 13:28:59;;;;;;;1.52;1.20;;;;;;;;;;5142998;27;20105;-69
2023/07/15 13:31:26;;;;;;;1.27;1.00;;;;;;;;;;5142297;27;20390;-71
2023/07/15 13:33:54;;;;;;;3.22;1.30;;;;;;;;;;5124134;27;20055;-73
2023/07/15 13:36:21;;;;;;;2.55;1.30;;;;;;;;;;5144884;27;20125;-70
2023/07/15 13:38:50;;;;;;;3.10;1.10;;;;;;;;;;5140595;27;20050;-71
2023/07/15 13:41:17;;;;;;;2.17;1.40;;;;;;;;;;5147674;27;20061;-69
2023/07/15 13:43:47;;;;;;;2.72;1.30;;;;;;;;;;5138760;27;20528;-69
2023/07/15 13:46:14;;;;;;;2.65;1.35;;;;;;;;;;5143926;27;20046;-72
2023/07/15 13:48:41;;;;;;;1.98;1.00;;;;;;;;;;5138616;27;20077;-70
2023/07/15 13:51:09;;;;;;;1.88;1.23;;;;;;;;;;5139639;27;20412;-71
2023/07/15 13:53:36;;;;;;;2.17;1.40;;;;;;;;;;5136216;27;20043;-69
2023/07/15 13:56:05;;;;;;;3.08;1.58;;;;;;;;;;5146269;27;20050;-69
2023/07/15 13:58:32;;;;;;;1.60;1.20;;;;;;;;;;5141046;27;20136;-70
2023/07/15 14:00:59;;;;;;;1.35;1.15;;;;;;;;;;5119809;27;20062;-72
2023/07/15 14:03:27;;;;;;;2.08;1.10;;;;;;;;;;5139318;27;20051;-72
2023/07/15 14:05:54;;;;;;;1.88;1.30;;;;;;;;;;5146669;27;20045;-69
2023/07/15 14:08:21;;;;;;;2.00;1.30;;;;;;;;;;5136156;27;20061;-70
2023/07/15 14:10:48;;;;;;;3.28;1.25;;;;;;;;;;5136631;27;20051;-70
2023/07/15 14:13:17;;;;;;;2.08;1.20;;;;;;;;;;5138489;27;20520;-69
2023/07/15 14:15:44;;;;;;;1.95;1.30;;;;;;;;;;5143393;27;20038;-70
2023/07/15 14:18:12;;;;;;;2.17;1.38;;;;;;;;;;5139666;27;20149;-70
2023/07/15 14:20:39;;;;;;;2.17;1.25;;;;;;;;;;5132142;27;20048;-67
2023/07/15 14:23:06;;;;;;;1.85;1.15;;;;;;;;;;5140386;27;20055;-68
2023/07/15 14:25:34;;;;;;;2.85;1.20;;;;;;;;;;5140431;27;20038;-69
2023/07/15 14:28:01;;;;;;;2.22;1.25;;;;;;;;;;5145730;27;20050;-68
2023/07/15 14:30:29;;;;;;;1.55;1.10;;;;;;;;;;5145395;27;20054;-67
2023/07/15 14:32:57;;;;;;;2.72;1.25;;;;;;;;;;5132370;27;20504;-67
2023/07/15 14:35:24;;;;;;;1.50;1.10;;;;;;;;;;5134872;27;20393;-68
2023/07/15 14:37:51;;;;;;;3.13;1.20;;;;;;;;;;5133012;27;20038;-68
2023/07/15 14:40:18;;;;;;;1.42;1.15;;;;;;;;;;5146165;27;20047;-69
2023/07/15 14:42:46;;;;;;;3.13;1.23;;;;;;;;;;5141625;27;20489;-67
2023/07/15 14:45:13;;;;;;;1.83;1.10;;;;;;;;;;5128418;27;20047;-69
2023/07/15 14:47:42;;;;;;;1.85;1.10;;;;;;;;;;5134257;27;20055;-67